Time;durP1;ratioP1;P1;durP2;ratioP2;P2;SDS_P1;SDS_P2;PMS_P1;PMS_P2;Temp;Humidity;BMP_temperature;BMP_pressure;BME280_temperature;BME280_humidity;BME280_pressure;Samples;Min_cycle;Max_cycle;Signal;HPM_P1;HPM_P2
2023/04/10 00:01:39;;;;;;;26.50;18.80;;;;;;;10.44;92.76;101483.48;106008;1257;72396;-87
2023/04/10 00:04:14;;;;;;;19.90;14.60;;;;;;;10.41;93.03;101488.34;105895;1257;61591;-87
2023/04/10 00:06:45;;;;;;;23.00;14.70;;;;;;;10.36;93.13;101487.51;105938;1253;60426;-88
2023/04/10 00:09:14;;;;;;;16.50;13.50;;;;;;;10.30;93.46;101489.16;105981;1258;75148;-87
2023/04/10 00:11:43;;;;;;;15.70;12.20;;;;;;;10.27;93.84;101490.15;106051;1252;64874;-89
2023/04/10 00:14:14;;;;;;;15.40;11.90;;;;;;;10.24;94.13;101492.88;106142;1253;73914;-88
2023/04/10 00:16:47;;;;;;;17.00;12.20;;;;;;;10.21;94.48;101492.85;106116;1253;62819;-87
2023/04/10 00:19:15;;;;;;;15.20;11.80;;;;;;;10.14;94.82;101489.11;106243;1254;61112;-87
2023/04/10 00:21:50;;;;;;;18.30;12.00;;;;;;;10.05;95.28;101490.41;106615;1253;74823;-86
2023/04/10 00:24:21;;;;;;;15.10;11.50;;;;;;;9.99;96.11;101492.77;106626;1253;64789;-87
2023/04/10 00:26:57;;;;;;;12.50;11.20;;;;;;;9.92;96.97;101493.42;106300;1257;73347;-89
2023/04/10 00:29:25;;;;;;;16.70;12.30;;;;;;;9.85;97.48;101491.09;106312;1253;62685;-85
2023/04/10 00:32:00;;;;;;;15.30;12.30;;;;;;;9.80;98.23;101490.77;106370;1254;61142;-85
2023/04/10 00:34:28;;;;;;;17.20;12.20;;;;;;;9.72;98.94;101487.27;106726;1253;74039;-86
2023/04/10 00:37:01;;;;;;;22.30;12.90;;;;;;;9.68;99.54;101483.42;106114;1253;62786;-87
2023/04/10 00:39:29;;;;;;;15.40;12.70;;;;;;;9.66;99.92;101483.33;106323;1257;72612;-86
2023/04/10 00:42:00;;;;;;;19.70;12.00;;;;;;;9.66;100.00;101485.27;106421;1253;62696;-85
2023/04/10 00:44:29;;;;;;;17.70;13.60;;;;;;;9.65;100.00;101487.42;106377;1253;61312;-85
2023/04/10 00:46:57;;;;;;;19.40;14.10;;;;;;;9.60;100.00;101488.33;106120;1258;73782;-87
2023/04/10 00:49:26;;;;;;;18.70;14.50;;;;;;;9.57;100.00;101485.14;106132;1253;64840;-86
2023/04/10 00:51:54;;;;;;;24.40;13.90;;;;;;;9.57;100.00;101484.59;105993;1253;73576;-88
2023/04/10 00:54:29;;;;;;;23.60;15.00;;;;;;;9.54;100.00;101485.92;105757;1258;62805;-87
2023/04/10 00:56:58;;;;;;;24.20;16.40;;;;;;;9.51;100.00;101487.09;105987;1254;61761;-87
2023/04/10 00:59:26;;;;;;;23.00;15.50;;;;;;;9.49;100.00;101484.95;106589;1252;74819;-83
2023/04/10 01:01:56;;;;;;;22.80;15.20;;;;;;;9.47;100.00;101482.23;107588;1253;63817;-82
2023/04/10 01:04:34;;;;;;;24.60;16.10;;;;;;;9.47;100.00;101483.28;105951;1253;73602;-87
2023/04/10 01:07:14;;;;;;;24.80;15.90;;;;;;;9.44;100.00;101480.06;106143;1258;63005;-90
2023/04/10 01:10:07;;;;;;;20.20;15.50;;;;;;;9.41;100.00;101480.05;106033;1253;61374;-87
2023/04/10 01:12:59;;;;;;;19.00;13.30;;;;;;;9.36;100.00;101481.95;105850;1259;74837;-88
2023/04/10 01:15:28;;;;;;;17.70;12.70;;;;;;;9.32;100.00;101480.39;106024;1253;63765;-85
2023/04/10 01:18:05;;;;;;;19.20;14.10;;;;;;;9.29;100.00;101476.68;106333;1256;73678;-86
2023/04/10 01:20:36;;;;;;;15.60;12.90;;;;;;;9.25;100.00;101476.11;106134;1257;62539;-85
2023/04/10 01:23:31;;;;;;;15.70;13.00;;;;;;;9.24;100.00;101474.09;106120;1259;60528;-86
2023/04/10 01:26:06;;;;;;;19.10;13.50;;;;;;;9.22;100.00;101470.66;106092;1253;73766;-85
2023/04/10 01:28:50;;;;;;;15.40;13.20;;;;;;;9.22;100.00;101467.70;106157;1258;63655;-85
2023/04/10 01:31:41;;;;;;;18.40;13.20;;;;;;;9.23;100.00;101463.46;107831;1253;72911;-84
2023/04/10 01:34:15;;;;;;;19.10;13.30;;;;;;;9.27;100.00;101457.02;108536;1252;61879;-86
2023/04/10 01:37:09;;;;;;;16.70;12.00;;;;;;;9.30;100.00;101454.62;109183;1253;60365;-86
2023/04/10 01:39:39;;;;;;;18.20;13.90;;;;;;;9.35;100.00;101454.11;109526;1253;73585;-86
2023/04/10 01:42:08;;;;;;;14.40;12.80;;;;;;;9.40;100.00;101460.02;107531;1256;62859;-88
2023/04/10 01:44:41;;;;;;;15.00;13.30;;;;;;;9.41;100.00;101457.70;109006;1255;73491;-87
2023/04/10 01:47:10;;;;;;;18.50;14.20;;;;;;;9.42;100.00;101457.48;107846;1261;61763;-84
2023/04/10 01:49:43;;;;;;;16.00;13.70;;;;;;;9.42;100.00;101455.91;107071;1257;60611;-87
2023/04/10 01:52:12;;;;;;;17.50;14.20;;;;;;;9.44;100.00;101458.80;106149;1256;74846;-87
2023/04/10 01:54:44;;;;;;;20.20;16.00;;;;;;;9.43;100.00;101456.39;105710;1260;64890;-88
2023/04/10 01:57:15;;;;;;;19.40;13.50;;;;;;;9.41;100.00;101454.57;105627;1256;73834;-89
2023/04/10 01:59:57;;;;;;;18.20;14.10;;;;;;;9.36;100.00;101454.55;105674;1260;62895;-87
2023/04/10 02:02:32;;;;;;;15.70;13.10;;;;;;;9.31;100.00;101451.64;106159;1257;61600;-89
2023/04/10 02:05:01;;;;;;;22.00;15.30;;;;;;;9.28;100.00;101452.44;105735;1258;74940;-88
2023/04/10 02:07:40;;;;;;;17.90;14.10;;;;;;;9.27;100.00;101456.17;106265;1260;64666;-87
2023/04/10 02:10:15;;;;;;;17.80;12.90;;;;;;;9.26;100.00;101449.38;106085;1261;71487;-89
2023/04/10 02:13:13;;;;;;;19.60;13.60;;;;;;;9.28;100.00;101454.36;105818;1261;61993;-88
2023/04/10 02:15:49;;;;;;;15.90;12.90;;;;;;;9.27;100.00;101452.67;105553;1257;61351;-88
2023/04/10 02:18:20;;;;;;;15.90;12.90;;;;;;;9.27;100.00;101453.38;105786;1263;74810;-86
2023/04/10 02:20:49;;;;;;;15.60;14.00;;;;;;;9.26;100.00;101451.31;105781;1261;63972;-88
2023/04/10 02:23:19;;;;;;;16.70;12.10;;;;;;;9.29;100.00;101452.42;105901;1262;73917;-87
2023/04/10 02:25:48;;;;;;;15.40;11.90;;;;;;;9.33;100.00;101458.02;105662;1263;62874;-87
2023/04/10 02:28:22;;;;;;;16.50;13.50;;;;;;;9.32;100.00;101461.20;105703;1262;61328;-87
2023/04/10 02:30:52;;;;;;;16.70;14.10;;;;;;;9.28;100.00;101460.48;105665;1264;74768;-86
2023/04/10 02:33:21;;;;;;;19.50;14.70;;;;;;;9.25;100.00;101458.52;106028;1262;64509;-87
2023/04/10 02:35:49;;;;;;;21.40;14.70;;;;;;;9.26;100.00;101458.45;107942;1260;73712;-86
2023/04/10 02:38:18;;;;;;;20.00;15.30;;;;;;;9.27;99.95;101461.40;106412;1262;61332;-88
2023/04/10 02:40:46;;;;;;;22.40;15.40;;;;;;;9.25;99.68;101457.65;106027;1261;60555;-84
2023/04/10 02:43:20;;;;;;;15.90;13.00;;;;;;;9.24;99.57;101460.99;105975;1258;73867;-86
2023/04/10 02:45:48;;;;;;;18.00;13.20;;;;;;;9.25;99.15;101462.54;106397;1262;63454;-86
2023/04/10 02:48:22;;;;;;;18.50;13.50;;;;;;;9.24;98.80;101463.46;106026;1257;73434;-87
2023/04/10 02:50:56;;;;;;;18.00;14.40;;;;;;;9.21;98.51;101459.73;105814;1258;62002;-89
2023/04/10 02:53:25;;;;;;;20.00;15.70;;;;;;;9.20;98.46;101456.45;105973;1254;61261;-87
2023/04/10 02:55:59;;;;;;;22.20;16.30;;;;;;;9.21;98.44;101454.69;106047;1253;74800;-85
2023/04/10 02:58:31;;;;;;;20.70;14.90;;;;;;;9.22;98.31;101457.93;106094;1257;64832;-88
2023/04/10 03:01:00;;;;;;;19.50;14.00;;;;;;;9.24;98.28;101455.73;106103;1257;73692;-85
2023/04/10 03:06:56;;;;;;;19.20;15.00;;;;;;;9.27;97.47;101457.23;89677;1270;983640;-84
2023/04/10 03:09:25;;;;;;;20.10;15.70;;;;;;;9.27;97.17;101456.69;104622;1271;74907;-83
2023/04/10 03:11:54;;;;;;;19.10;14.70;;;;;;;9.25;96.77;101455.72;104632;1273;64381;-85
2023/04/10 03:14:23;;;;;;;16.90;14.20;;;;;;;9.21;96.40;101456.41;104590;1273;73650;-82
2023/04/10 03:16:54;;;;;;;21.20;15.40;;;;;;;9.15;96.30;101457.22;104661;1274;63020;-85
2023/04/10 03:19:25;;;;;;;20.40;14.40;;;;;;;9.10;96.40;101459.30;104761;1269;61143;-84
2023/04/10 03:21:56;;;;;;;16.00;13.30;;;;;;;9.07;96.70;101458.36;104956;1274;75074;-84
2023/04/10 03:24:25;;;;;;;17.90;13.60;;;;;;;9.07;97.05;101463.59;104731;1270;64671;-85
2023/04/10 03:27:03;;;;;;;20.10;14.50;;;;;;;9.08;97.16;101462.48;104640;1270;73809;-86
2023/04/10 03:29:31;;;;;;;20.00;15.10;;;;;;;9.10;97.13;101465.42;105756;1272;61004;-85
2023/04/10 03:32:00;;;;;;;29.40;17.80;;;;;;;9.09;97.11;101464.58;105433;1269;61105;-85
2023/04/10 03:34:32;;;;;;;31.20;18.10;;;;;;;9.08;97.11;101467.24;104884;1272;75298;-84
2023/04/10 03:37:01;;;;;;;34.00;22.20;;;;;;;9.08;97.16;101466.33;104866;1273;64538;-83
2023/04/10 03:39:30;;;;;;;41.60;26.00;;;;;;;9.09;97.06;101466.67;105318;1274;73760;-82
2023/04/10 03:41:58;;;;;;;35.30;23.00;;;;;;;9.10;96.96;101465.75;104720;1271;60586;-84
2023/04/10 03:44:30;;;;;;;31.80;21.30;;;;;;;9.10;96.72;101465.76;104798;1271;61053;-82
2023/04/10 03:47:00;;;;;;;36.80;23.20;;;;;;;9.10;96.57;101469.25;104786;1272;74874;-84
2023/04/10 03:49:29;;;;;;;36.20;21.90;;;;;;;9.09;96.63;101472.59;104784;1274;65203;-84
2023/04/10 03:52:05;;;;;;;30.70;21.90;;;;;;;9.09;96.83;101474.01;105815;1272;73543;-83
2023/04/10 03:54:35;;;;;;;44.70;25.40;;;;;;;9.09;97.00;101474.33;105624;1269;62752;-81
2023/04/10 03:57:07;;;;;;;47.40;27.10;;;;;;;9.13;97.30;101480.14;108139;1268;59646;-80
2023/04/10 03:59:39;;;;;;;42.90;24.60;;;;;;;9.17;97.46;101478.05;107368;1270;73418;-82
2023/04/10 04:02:10;;;;;;;50.50;26.60;;;;;;;9.22;97.47;101476.95;105431;1273;63507;-83
2023/04/10 04:04:40;;;;;;;45.40;25.40;;;;;;;9.27;97.57;101482.50;104823;1269;72351;-82
2023/04/10 04:07:38;;;;;;;46.40;24.70;;;;;;;9.33;97.66;101485.07;104686;1273;62985;-83
2023/04/10 04:10:25;;;;;;;46.00;24.70;;;;;;;9.40;97.52;101486.54;104790;1272;60327;-82
2023/04/10 04:13:14;;;;;;;41.60;26.00;;;;;;;9.47;97.31;101489.38;104769;1272;75067;-84
2023/04/10 04:15:54;;;;;;;48.50;26.90;;;;;;;9.53;97.22;101490.67;104810;1272;64687;-83
2023/04/10 04:18:42;;;;;;;45.10;27.30;;;;;;;9.59;96.93;101491.32;105755;1270;73540;-83
2023/04/10 04:21:40;;;;;;;47.80;26.70;;;;;;;9.62;96.68;101493.98;104630;1274;62959;-84
2023/04/10 04:24:25;;;;;;;46.80;27.80;;;;;;;9.65;96.46;101494.55;104959;1273;60492;-83
2023/04/10 04:27:22;;;;;;;51.70;28.00;;;;;;;9.67;96.57;101492.90;104928;1272;74840;-82
2023/04/10 04:30:10;;;;;;;40.90;24.70;;;;;;;9.68;96.74;101494.23;104937;1271;63950;-82
2023/04/10 04:32:51;;;;;;;45.60;25.40;;;;;;;9.74;97.15;101490.86;104756;1269;74133;-82
2023/04/10 04:35:34;;;;;;;39.10;25.20;;;;;;;9.83;97.37;101490.30;104741;1269;63034;-83
2023/04/10 04:38:39;;;;;;;33.00;25.00;;;;;;;9.95;97.69;101491.87;104478;1274;60553;-85
2023/04/10 04:41:25;;;;;;;31.90;24.20;;;;;;;10.07;97.89;101495.75;104739;1272;74601;-83
2023/04/10 04:44:10;;;;;;;33.20;26.20;;;;;;;10.22;98.49;101496.32;104804;1270;63249;-86
2023/04/10 04:46:54;;;;;;;30.80;25.30;;;;;;;10.43;98.57;101497.84;104928;1271;73646;-82
2023/04/10 04:49:28;;;;;;;37.70;28.30;;;;;;;10.62;97.92;101492.45;104765;1281;61462;-83
2023/04/10 04:52:16;;;;;;;33.50;25.40;;;;;;;10.84;97.45;101488.94;104693;1269;60335;-85
2023/04/10 04:55:02;;;;;;;35.00;26.20;;;;;;;11.14;97.07;101493.15;104867;1269;73624;-83
2023/04/10 04:57:44;;;;;;;38.00;27.00;;;;;;;11.49;95.83;101498.41;105387;1273;64901;-81
2023/04/10 05:00:26;;;;;;;28.40;23.80;;;;;;;11.82;94.58;101492.92;107226;1268;73493;-83
2023/04/10 05:03:08;;;;;;;32.50;23.30;;;;;;;12.12;92.80;101492.96;106787;1273;62045;-81
2023/04/10 05:05:57;;;;;;;30.20;22.90;;;;;;;12.41;91.55;101497.22;106027;1270;60471;-84
2023/04/10 05:08:46;;;;;;;38.00;24.50;;;;;;;12.67;89.66;101498.83;106937;1272;74201;-83
2023/04/10 05:11:42;;;;;;;36.50;26.30;;;;;;;12.90;88.29;101495.44;105006;1272;64739;-84
2023/04/10 05:14:21;;;;;;;33.40;25.10;;;;;;;13.09;86.82;101490.49;104814;1272;73417;-82
2023/04/10 05:17:11;;;;;;;39.40;27.90;;;;;;;13.35;84.92;101491.52;104640;1272;60502;-85
2023/04/10 05:19:48;;;;;;;35.30;25.40;;;;;;;13.60;82.58;101491.47;104787;1271;61325;-83
2023/04/10 05:22:22;;;;;;;34.90;26.30;;;;;;;13.84;80.69;101494.05;104683;1269;73797;-85
2023/04/10 05:25:09;;;;;;;39.60;27.80;;;;;;;14.09;79.29;101491.16;104664;1273;63897;-85
2023/04/10 05:27:58;;;;;;;25.90;21.50;;;;;;;14.27;77.74;101496.56;104802;1269;72613;-85
2023/04/10 05:30:42;;;;;;;24.70;18.20;;;;;;;14.52;75.72;101492.95;104924;1270;60525;-86
2023/04/10 05:35:53;;;;;;;26.30;18.00;;;;;;;15.18;73.56;101490.65;102915;1290;600090;-83
2023/04/10 05:39:03;;;;;;;22.90;17.00;;;;;;;15.67;69.43;101496.58;105817;1267;61947;-83
2023/04/10 05:42:12;;;;;;;18.50;12.40;;;;;;;16.09;66.41;101499.39;107127;1271;60604;-81
2023/04/10 05:44:56;;;;;;;16.10;12.80;;;;;;;16.33;62.34;101497.40;106852;1268;72954;-83
2023/04/10 05:47:46;;;;;;;16.80;11.50;;;;;;;16.47;58.79;101503.13;105741;1273;63810;-85
2023/04/10 05:50:29;;;;;;;13.80;11.80;;;;;;;16.67;58.32;101505.41;104701;1271;605232;-86
2023/04/10 05:53:30;;;;;;;18.50;11.80;;;;;;;17.09;55.94;101505.23;105012;1267;61068;-86
2023/04/10 05:56:27;;;;;;;15.70;12.50;;;;;;;17.36;53.46;101499.69;104928;1267;61300;-84
2023/04/10 05:59:22;;;;;;;15.00;11.20;;;;;;;17.56;52.88;101506.54;105549;1270;73243;-84
2023/04/10 06:02:02;;;;;;;18.00;11.90;;;;;;;17.79;52.10;101510.45;105716;1267;65266;-84
2023/04/10 06:04:30;;;;;;;18.50;12.90;;;;;;;18.00;51.43;101511.66;107875;1266;72471;-83
2023/04/10 06:07:02;;;;;;;22.00;12.30;;;;;;;18.22;50.54;101514.90;107301;1270;60348;-84
2023/04/10 06:09:32;;;;;;;15.00;11.70;;;;;;;18.42;50.04;101513.17;106255;1262;60295;-83
2023/04/10 06:12:02;;;;;;;17.90;11.20;;;;;;;18.71;50.41;101515.70;105457;1263;72753;-84
2023/04/10 06:14:30;;;;;;;15.90;12.50;;;;;;;19.07;49.48;101509.27;105873;1257;63789;-85
2023/04/10 06:17:01;;;;;;;15.70;11.90;;;;;;;19.52;47.87;101514.95;105920;1260;73628;-85
2023/04/10 06:19:30;;;;;;;12.20;10.90;;;;;;;19.83;46.21;101511.61;105946;1257;60341;-86
2023/04/10 06:21:58;;;;;;;18.30;12.40;;;;;;;20.04;45.89;101513.98;106216;1255;61604;-87
2023/04/10 06:24:28;;;;;;;16.10;11.90;;;;;;;20.31;45.80;101510.60;105879;1260;72852;-88
2023/04/10 06:26:58;;;;;;;13.00;11.60;;;;;;;20.61;44.42;101513.79;105984;1256;64999;-86
2023/04/10 06:29:26;;;;;;;16.10;13.10;;;;;;;20.92;43.59;101520.69;107574;1257;72584;-83
2023/04/10 06:31:55;;;;;;;18.90;13.70;;;;;;;21.20;42.37;101521.34;106374;1256;59700;-87
2023/04/10 06:34:24;;;;;;;13.40;12.00;;;;;;;21.43;41.40;101517.70;105739;1260;60220;-84
2023/04/10 06:37:00;;;;;;;14.60;11.90;;;;;;;21.71;40.72;101518.84;106472;1256;74575;-83
2023/04/10 06:39:29;;;;;;;12.90;11.40;;;;;;;21.87;39.87;101517.70;106144;1256;64802;-86
2023/04/10 06:41:57;;;;;;;20.90;12.10;;;;;;;22.01;40.44;101516.02;106703;1255;73814;-85
2023/04/10 06:44:54;;;;;;;13.40;12.10;;;;;;;22.29;39.87;101514.27;106191;1255;59680;-84
2023/04/10 06:47:23;;;;;;;14.70;12.30;;;;;;;22.57;39.41;101514.42;106044;1256;61290;-87
2023/04/10 06:50:03;;;;;;;16.60;11.30;;;;;;;22.86;38.40;101513.05;106634;1255;74072;-84
2023/04/10 06:52:32;;;;;;;12.40;10.30;;;;;;;23.09;37.35;101510.33;108454;1255;63686;-84
2023/04/10 06:55:00;;;;;;;15.20;10.20;;;;;;;23.23;35.80;101509.12;105947;1256;72568;-87
2023/04/10 06:57:29;;;;;;;12.30;9.50;;;;;;;23.22;35.72;101510.66;106067;1256;61346;-84
2023/04/10 06:59:57;;;;;;;11.20;10.10;;;;;;;23.18;35.71;101510.80;105979;1255;61189;-86
2023/04/10 07:02:26;;;;;;;16.40;12.60;;;;;;;23.19;35.49;101513.23;106304;1253;72961;-87
2023/04/10 07:04:55;;;;;;;13.50;9.80;;;;;;;23.14;35.00;101512.12;106725;1253;63604;-83
2023/04/10 07:07:27;;;;;;;16.80;12.50;;;;;;;23.20;35.13;101512.98;107389;1253;73599;-85
2023/04/10 07:09:56;;;;;;;17.40;11.20;;;;;;;23.22;34.75;101508.35;109116;1250;60359;-86
2023/04/10 07:12:28;;;;;;;16.60;9.30;;;;;;;23.30;35.72;101507.45;107767;1250;61166;-85
2023/04/10 07:15:02;;;;;;;10.30;8.70;;;;;;;23.57;35.04;101510.66;106983;1250;72882;-86
2023/04/10 07:17:31;;;;;;;11.60;8.20;;;;;;;23.75;34.13;101500.84;106405;1250;63796;-84
2023/04/10 07:20:00;;;;;;;12.00;9.00;;;;;;;23.92;34.08;101500.86;106328;1251;73913;-87
2023/04/10 07:22:29;;;;;;;16.60;9.10;;;;;;;24.13;34.15;101498.36;106277;1250;60320;-86
2023/04/10 07:24:58;;;;;;;11.60;6.10;;;;;;;24.33;33.79;101491.63;106944;1250;61486;-85
2023/04/10 07:27:26;;;;;;;11.10;6.40;;;;;;;24.45;32.55;101492.89;106641;1250;74505;-84
2023/04/10 07:29:55;;;;;;;8.60;6.00;;;;;;;24.42;32.51;101487.48;106545;1250;64755;-84
2023/04/10 07:32:24;;;;;;;7.60;6.20;;;;;;;24.39;32.33;101491.69;106305;1250;72733;-86
2023/04/10 07:34:55;;;;;;;9.70;5.60;;;;;;;24.39;32.41;101489.02;106558;1256;60175;-87
2023/04/10 07:37:24;;;;;;;9.50;6.30;;;;;;;24.49;32.35;101483.23;106421;1250;61142;-85
2023/04/10 07:39:53;;;;;;;8.90;5.70;;;;;;;24.63;32.00;101489.25;106505;1250;72956;-85
2023/04/10 07:42:22;;;;;;;8.90;5.80;;;;;;;24.69;31.59;101486.96;106381;1256;63922;-87
2023/04/10 07:44:51;;;;;;;15.60;5.40;;;;;;;24.72;31.00;101492.43;106655;1250;73618;-85
2023/04/10 07:47:19;;;;;;;5.40;4.50;;;;;;;24.61;30.99;101483.88;106488;1253;61080;-86
2023/04/10 07:49:48;;;;;;;9.40;5.10;;;;;;;24.59;31.36;101478.55;106358;1253;60288;-87
2023/04/10 07:52:17;;;;;;;6.60;4.90;;;;;;;24.78;30.37;101489.80;106417;1254;73172;-87
2023/04/10 07:54:45;;;;;;;5.60;5.00;;;;;;;24.89;30.23;101483.27;106401;1250;65466;-86
2023/04/10 07:57:15;;;;;;;12.00;4.90;;;;;;;25.00;30.14;101481.48;106250;1250;73323;-89
2023/04/10 07:59:44;;;;;;;11.00;4.70;;;;;;;24.97;30.01;101473.73;106107;1254;61329;-86
2023/04/10 08:02:13;;;;;;;7.00;4.50;;;;;;;25.08;30.15;101467.52;106172;1250;61332;-86
2023/04/10 08:04:43;;;;;;;8.60;3.90;;;;;;;25.20;29.38;101464.67;106172;1254;74104;-85
2023/04/10 08:07:12;;;;;;;9.10;5.60;;;;;;;25.15;29.25;101459.49;106368;1250;63536;-87
2023/04/10 08:09:40;;;;;;;9.70;4.90;;;;;;;25.15;29.48;101454.09;106682;1250;72630;-85
2023/04/10 08:12:10;;;;;;;4.90;3.70;;;;;;;25.22;28.55;101455.15;108050;1252;61601;-85
2023/04/10 08:14:39;;;;;;;6.70;4.20;;;;;;;25.34;28.37;101451.23;108601;1250;61636;-86
2023/04/10 08:17:13;;;;;;;10.60;4.30;;;;;;;25.38;28.59;101449.15;107579;1254;72966;-87
2023/04/10 08:19:42;;;;;;;10.00;4.40;;;;;;;25.46;28.05;101443.81;107364;1254;63253;-89
2023/04/10 08:22:11;;;;;;;8.70;4.50;;;;;;;25.45;27.75;101444.00;106575;1250;73814;-84
2023/04/10 08:24:43;;;;;;;11.20;4.50;;;;;;;25.44;27.98;101447.20;106413;1255;60111;-85
2023/04/10 08:27:32;;;;;;;5.60;3.30;;;;;;;25.49;27.06;101447.56;106558;1254;62029;-85
2023/04/10 08:30:04;;;;;;;9.20;4.60;;;;;;;25.44;26.84;101443.43;106716;1253;74109;-83
2023/04/10 08:32:38;;;;;;;6.40;3.70;;;;;;;25.31;26.73;101443.11;106486;1250;64821;-85
2023/04/10 08:35:11;;;;;;;7.60;4.40;;;;;;;25.24;27.69;101436.04;106893;1250;72057;-85
2023/04/10 08:37:44;;;;;;;10.80;3.60;;;;;;;25.26;27.66;101427.30;106768;1251;59583;-86
2023/04/10 08:40:23;;;;;;;5.50;3.80;;;;;;;25.34;27.79;101431.69;106548;1250;60466;-86
2023/04/10 08:42:53;;;;;;;8.10;4.00;;;;;;;25.39;27.12;101424.06;106531;1254;72741;-88
2023/04/10 08:45:21;;;;;;;9.30;4.30;;;;;;;25.38;27.28;101423.23;106497;1254;64833;-85
2023/04/10 08:47:51;;;;;;;5.60;3.10;;;;;;;25.40;27.45;101431.02;107294;1250;72628;-87
2023/04/10 08:50:20;;;;;;;7.30;3.20;;;;;;;25.34;26.77;101423.42;106490;1256;60762;-85
2023/04/10 08:52:51;;;;;;;6.40;2.90;;;;;;;25.27;26.74;101419.39;107269;1250;61271;-85
2023/04/10 08:55:25;;;;;;;9.20;3.30;;;;;;;25.17;26.46;101412.02;107125;1252;74131;-86
2023/04/10 08:57:54;;;;;;;6.40;3.10;;;;;;;25.12;27.00;101416.84;106373;1250;63916;-87
2023/04/10 09:00:30;;;;;;;7.40;3.40;;;;;;;25.17;26.63;101404.34;106542;1251;73716;-87
2023/04/10 09:03:39;;;;;;;3.40;2.80;;;;;;;25.21;26.67;101407.41;106783;1253;61384;-85
2023/04/10 09:06:27;;;;;;;4.50;3.00;;;;;;;25.21;26.98;101408.95;107505;1250;61196;-85
2023/04/10 09:08:58;;;;;;;6.40;3.00;;;;;;;25.21;26.81;101406.00;107292;1254;73760;-86
2023/04/10 09:11:59;;;;;;;4.80;2.90;;;;;;;25.07;26.77;101399.19;107156;1250;64863;-85
2023/04/10 09:14:30;;;;;;;4.50;2.80;;;;;;;24.94;27.23;101394.09;107658;1255;73941;-86
2023/04/10 09:17:19;;;;;;;7.70;4.80;;;;;;;24.95;26.92;101392.41;109033;1251;60213;-85
2023/04/10 09:19:49;;;;;;;8.50;3.60;;;;;;;25.06;27.08;101396.05;108246;1250;61512;-83
2023/04/10 09:22:27;;;;;;;6.20;3.10;;;;;;;25.05;27.03;101396.10;107998;1250;72712;-86
2023/04/10 09:24:58;;;;;;;6.90;3.50;;;;;;;24.84;27.42;101394.29;107433;1250;64782;-83
2023/04/10 09:27:31;;;;;;;6.00;4.30;;;;;;;24.88;27.92;101384.60;106677;1250;72808;-84
2023/04/10 09:30:00;;;;;;;8.90;3.00;;;;;;;25.06;27.73;101385.13;107005;1255;60350;-84
2023/04/10 09:32:42;;;;;;;3.80;2.60;;;;;;;25.23;27.29;101379.89;106455;1250;61922;-87
2023/04/10 09:35:13;;;;;;;4.30;3.30;;;;;;;25.28;27.08;101382.73;106373;1254;74185;-85
2023/04/10 09:37:45;;;;;;;6.80;2.90;;;;;;;25.22;26.99;101372.34;106853;1250;63773;-84
2023/04/10 09:40:20;;;;;;;5.20;2.90;;;;;;;25.19;26.41;101377.23;106482;1250;73802;-84
2023/04/10 09:42:51;;;;;;;9.60;3.20;;;;;;;25.13;26.43;101376.52;106834;1250;60228;-85
2023/04/10 09:45:21;;;;;;;4.50;3.10;;;;;;;25.02;26.39;101369.06;106235;1251;61366;-87
2023/04/10 09:48:06;;;;;;;4.00;2.90;;;;;;;25.01;26.74;101369.97;106787;1250;73834;-86
2023/04/10 09:50:39;;;;;;;9.10;3.00;;;;;;;25.11;26.53;101367.25;107088;1250;64880;-85
2023/04/10 09:53:18;;;;;;;3.40;2.60;;;;;;;25.03;26.81;101374.20;107254;1250;72541;-86
2023/04/10 09:55:48;;;;;;;8.30;3.20;;;;;;;24.76;27.12;101368.86;108675;1250;60414;-87
2023/04/10 09:58:17;;;;;;;7.20;3.50;;;;;;;24.55;27.20;101354.16;107831;1250;61207;-88
2023/04/10 10:00:47;;;;;;;6.20;4.10;;;;;;;24.59;27.98;101348.77;106886;1254;74935;-88
2023/04/10 10:03:19;;;;;;;6.50;3.30;;;;;;;24.76;27.72;101357.77;106852;1255;63601;-88
2023/04/10 10:05:49;;;;;;;5.70;3.10;;;;;;;24.66;26.84;101355.81;106934;1250;73600;-86
2023/04/10 10:08:25;;;;;;;6.60;2.90;;;;;;;24.39;27.13;101350.39;106768;1251;61219;-86
2023/04/10 10:10:56;;;;;;;6.50;2.80;;;;;;;24.09;27.46;101348.30;106461;1250;61285;-86
2023/04/10 10:13:35;;;;;;;5.00;2.60;;;;;;;23.86;27.60;101342.73;106873;1250;73474;-87
2023/04/10 10:16:09;;;;;;;7.50;2.10;;;;;;;23.61;27.44;101334.82;107169;1250;64620;-86
2023/04/10 10:18:58;;;;;;;3.60;2.30;;;;;;;23.45;27.92;101338.98;107669;1250;72336;-86
2023/04/10 10:21:27;;;;;;;6.80;2.80;;;;;;;23.42;28.39;101347.27;109076;1254;61130;-88
2023/04/10 10:24:00;;;;;;;;;;;;;;;23.35;28.14;101339.05;108721;1250;62418;-84
2023/04/10 10:26:30;;;;;;;5.10;3.20;;;;;;;23.39;27.96;101339.05;108158;1250;74496;-82
2023/04/10 10:29:04;;;;;;;8.40;3.10;;;;;;;23.54;28.19;101333.84;106714;1250;64711;-86
2023/04/10 10:31:35;;;;;;;4.50;2.90;;;;;;;23.87;27.94;101333.35;106460;1256;72618;-85
2023/04/10 10:34:06;;;;;;;6.70;2.60;;;;;;;24.07;27.82;101331.54;107153;1250;60433;-85
2023/04/10 10:36:35;;;;;;;6.00;2.90;;;;;;;24.21;27.41;101329.01;106522;1250;60896;-85
2023/04/10 10:39:25;;;;;;;5.90;3.00;;;;;;;24.30;27.72;101317.30;106891;1250;73622;-85
2023/04/10 10:42:12;;;;;;;9.10;3.30;;;;;;;24.50;27.38;101317.77;107874;1251;63762;-83
2023/04/10 10:44:52;;;;;;;7.50;3.10;;;;;;;24.43;27.02;101313.13;106687;1255;73694;-84
2023/04/10 10:47:26;;;;;;;5.20;2.90;;;;;;;24.24;26.86;101316.52;106308;1256;61629;-87
2023/04/10 10:50:02;;;;;;;5.00;3.00;;;;;;;23.98;27.02;101310.92;106384;1250;61261;-86
2023/04/10 10:52:38;;;;;;;4.00;3.00;;;;;;;23.81;26.72;101318.73;106557;1250;75143;-84
2023/04/10 10:55:23;;;;;;;7.00;2.50;;;;;;;23.63;26.65;101311.77;106967;1250;64562;-87
2023/04/10 10:58:07;;;;;;;6.50;2.60;;;;;;;23.47;27.42;101309.12;108038;1250;73601;-86
2023/04/10 11:00:51;;;;;;;8.60;3.20;;;;;;;23.36;27.76;101309.13;106571;1250;61180;-86
2023/04/10 11:03:27;;;;;;;4.40;3.20;;;;;;;23.43;28.52;101301.80;106743;1250;61564;-87
2023/04/10 11:06:01;;;;;;;3.00;2.50;;;;;;;23.71;27.72;101311.29;106797;1255;74900;-90
2023/04/10 11:08:32;;;;;;;8.00;2.70;;;;;;;23.78;27.17;101302.33;106448;1250;64811;-86
2023/04/10 11:11:07;;;;;;;5.70;2.50;;;;;;;23.56;27.71;101297.47;107166;1250;72881;-85
2023/04/10 11:13:38;;;;;;;4.20;2.60;;;;;;;23.38;27.75;101296.45;106445;1256;60479;-83
2023/04/10 11:16:09;;;;;;;3.00;2.10;;;;;;;23.39;27.84;101293.67;106354;1250;61335;-85
2023/04/10 11:18:49;;;;;;;4.80;2.50;;;;;;;23.48;27.91;101297.71;106458;1255;74810;-85
2023/04/10 11:21:34;;;;;;;4.00;2.60;;;;;;;23.52;27.81;101291.40;106809;1250;65387;-86
2023/04/10 11:24:06;;;;;;;6.40;2.70;;;;;;;23.55;27.82;101291.88;108060;1250;72573;-83
2023/04/10 11:26:38;;;;;;;3.80;2.10;;;;;;;23.46;27.60;101288.13;109259;1250;60329;-83
2023/04/10 11:29:16;;;;;;;4.80;1.90;;;;;;;23.27;27.48;101279.96;108950;1250;60217;-84
2023/04/10 11:31:54;;;;;;;5.50;2.30;;;;;;;23.12;27.68;101273.46;106532;1250;73969;-84
2023/04/10 11:34:22;;;;;;;7.00;3.40;;;;;;;22.95;28.18;101270.21;105982;1256;64675;-88
2023/04/10 11:36:52;;;;;;;4.70;2.50;;;;;;;22.95;28.56;101271.08;106154;1250;73353;-84
2023/04/10 11:39:20;;;;;;;3.40;2.00;;;;;;;23.05;28.43;101269.70;106073;1255;61653;-85
2023/04/10 11:41:50;;;;;;;4.40;2.10;;;;;;;23.08;27.75;101268.21;106021;1250;61447;-86
2023/04/10 11:44:28;;;;;;;4.90;2.20;;;;;;;22.98;27.17;101263.83;106195;1256;73258;-87
2023/04/10 11:46:56;;;;;;;3.10;2.20;;;;;;;22.85;28.43;101260.54;106217;1256;64957;-83
2023/04/10 11:49:33;;;;;;;5.10;2.70;;;;;;;22.85;28.67;101265.73;105864;1251;72615;-86
2023/04/10 11:52:02;;;;;;;3.30;2.10;;;;;;;22.66;27.73;101260.81;105985;1250;61879;-88